Time;durP1;ratioP1;P1;durP2;ratioP2;P2;SDS_P1;SDS_P2;PMS_P1;PMS_P2;Temp;Humidity;BMP_temperature;BMP_pressure;BME280_temperature;BME280_humidity;BME280_pressure;Samples;Min_cycle;Max_cycle;Signal;HPM_P1;HPM_P2
2021/12/13 00:01:49;;;;;;;;;;;20.60;50.60;;;;;;4995106;28;19909;-74
2021/12/13 00:04:20;;;;;;;;;;;20.60;50.80;;;;;;4994678;28;19945;-75
2021/12/13 00:06:51;;;;;;;;;;;20.60;50.70;;;;;;4977179;28;19956;-75
2021/12/13 00:09:21;;;;;;;;;;;20.60;50.70;;;;;;4977548;28;19996;-75
2021/12/13 00:11:48;;;;;;;;;;;20.60;50.70;;;;;;4961403;28;19933;-74
2021/12/13 00:14:22;;;;;;;;;;;20.60;50.70;;;;;;4994366;28;20051;-74
2021/12/13 00:16:56;;;;;;;;;;;20.60;50.70;;;;;;4994523;28;19909;-74
2021/12/13 00:19:23;;;;;;;;;;;20.60;50.80;;;;;;4994426;28;19914;-75
2021/12/13 00:21:51;;;;;;;;;;;20.60;50.70;;;;;;4977334;28;19916;-74
2021/12/13 00:24:22;;;;;;;;;;;20.60;50.70;;;;;;4960875;28;20058;-74
2021/12/13 00:26:49;;;;;;;;;;;20.60;50.60;;;;;;4976883;28;20313;-74
2021/12/13 00:29:17;;;;;;;;;;;20.60;50.70;;;;;;4994350;28;19909;-74
2021/12/13 00:31:43;;;;;;;;;;;20.70;50.70;;;;;;4976817;28;19910;-74
2021/12/13 00:34:12;;;;;;;;;;;20.70;50.60;;;;;;4960979;28;19963;-74
2021/12/13 00:36:42;;;;;;;;;;;20.70;50.60;;;;;;4976596;28;19910;-74
2021/12/13 00:39:11;;;;;;;;;;;20.60;50.60;;;;;;4960644;28;19948;-75
2021/12/13 00:41:37;;;;;;;;;;;20.60;50.70;;;;;;4994099;28;19917;-74
2021/12/13 00:44:04;;;;;;;;;;;20.60;50.60;;;;;;4976742;28;20037;-74
2021/12/13 00:46:31;;;;;;;;;;;20.60;50.70;;;;;;4993529;28;19917;-75
2021/12/13 00:48:58;;;;;;;;;;;20.60;50.70;;;;;;4994026;28;19916;-74
2021/12/13 00:51:32;;;;;;;;;;;20.60;50.70;;;;;;4976553;28;19988;-74
2021/12/13 00:53:59;;;;;;;;;;;20.60;50.80;;;;;;4960596;28;19910;-74
2021/12/13 00:56:44;;;;;;;;;;;20.60;50.80;;;;;;4976088;28;20390;-74
2021/12/13 00:59:10;;;;;;;;;;;20.60;50.80;;;;;;4993635;28;19914;-74
2021/12/13 01:01:36;;;;;;;;;;;20.60;50.80;;;;;;4976477;28;19910;-74
2021/12/13 01:04:05;;;;;;;;;;;20.60;50.80;;;;;;4960319;28;19909;-74
2021/12/13 01:06:49;;;;;;;;;;;20.60;50.80;;;;;;4993049;28;20008;-74
2021/12/13 01:09:41;;;;;;;;;;;20.60;50.70;;;;;;4976074;28;19921;-74
2021/12/13 01:12:12;;;;;;;;;;;20.60;50.70;;;;;;4993510;28;19910;-74
2021/12/13 01:14:46;;;;;;;;;;;20.60;50.70;;;;;;4976102;28;20020;-74
2021/12/13 01:17:27;;;;;;;;;;;20.60;50.70;;;;;;4976219;28;19996;-74
2021/12/13 01:20:05;;;;;;;;;;;20.60;50.80;;;;;;4993737;28;19967;-74
2021/12/13 01:23:03;;;;;;;;;;;20.60;50.60;;;;;;4993650;28;20311;-74
2021/12/13 01:25:47;;;;;;;;;;;20.60;50.80;;;;;;4985922;28;19910;-74
2021/12/13 01:28:17;;;;;;;;;;;20.60;50.70;;;;;;4963061;28;19945;-74
2021/12/13 01:30:47;;;;;;;;;;;20.60;50.70;;;;;;4976992;28;20233;-74
2021/12/13 01:33:14;;;;;;;;;;;20.70;50.70;;;;;;4993880;28;19910;-74
2021/12/13 01:35:41;;;;;;;;;;;20.60;50.60;;;;;;4996409;28;19963;-74
2021/12/13 01:38:19;;;;;;;;;;;20.60;50.60;;;;;;4951178;28;19917;-74
2021/12/13 01:40:47;;;;;;;;;;;20.60;50.60;;;;;;5000046;28;19918;-74
2021/12/13 01:43:15;;;;;;;;;;;20.70;50.70;;;;;;5003408;28;19910;-74
2021/12/13 01:45:41;;;;;;;;;;;20.70;50.70;;;;;;4961982;28;19913;-74
2021/12/13 01:48:13;;;;;;;;;;;20.70;50.60;;;;;;4993313;28;20264;-74
2021/12/13 01:50:47;;;;;;;;;;;20.70;50.60;;;;;;4993390;28;19910;-74
2021/12/13 01:53:13;;;;;;;;;;;20.70;50.60;;;;;;4992881;28;19960;-74
2021/12/13 01:55:41;;;;;;;;;;;20.70;50.60;;;;;;4975201;28;19914;-75
2021/12/13 02:01:10;;;;;;;;;;;20.70;50.60;;;;;;4992698;28;19917;-74
2021/12/13 02:03:56;;;;;;;;;;;20.70;50.60;;;;;;4992993;28;19921;-74
2021/12/13 02:06:25;;;;;;;;;;;20.60;50.70;;;;;;4974704;28;20377;-74
2021/12/13 02:08:52;;;;;;;;;;;20.70;50.70;;;;;;4992831;28;19931;-75
2021/12/13 02:11:18;;;;;;;;;;;20.60;50.70;;;;;;4959010;28;19910;-74
2021/12/13 02:14:03;;;;;;;;;;;20.60;50.80;;;;;;4992618;28;19916;-75
2021/12/13 02:19:20;;;;;;;;;;;20.60;50.70;;;;;;4992379;28;19914;-74
2021/12/13 02:21:49;;;;;;;;;;;20.60;50.80;;;;;;4974802;28;20004;-74
2021/12/13 02:24:15;;;;;;;;;;;20.60;50.80;;;;;;4991962;28;19915;-74
2021/12/13 02:26:45;;;;;;;;;;;20.60;50.80;;;;;;4992158;28;19910;-74
2021/12/13 02:29:16;;;;;;;;;;;20.60;50.90;;;;;;4992739;28;20016;-75
2021/12/13 02:31:42;;;;;;;;;;;20.60;50.90;;;;;;4974915;28;19916;-74
2021/12/13 02:34:10;;;;;;;;;;;20.60;50.80;;;;;;4992412;28;19992;-74
2021/12/13 02:36:41;;;;;;;;;;;20.60;50.90;;;;;;4991824;28;19910;-74
2021/12/13 02:39:09;;;;;;;;;;;20.60;50.90;;;;;;4992192;28;19920;-74
2021/12/13 02:41:37;;;;;;;;;;;20.60;50.90;;;;;;4974979;28;19910;-74
2021/12/13 02:44:11;;;;;;;;;;;20.60;50.90;;;;;;4974922;28;19914;-74
2021/12/13 02:46:38;;;;;;;;;;;20.60;51.00;;;;;;4992442;28;19914;-75
2021/12/13 02:49:06;;;;;;;;;;;20.60;51.00;;;;;;4958721;28;20090;-74
2021/12/13 02:51:37;;;;;;;;;;;20.60;50.90;;;;;;4974753;28;19910;-75
2021/12/13 02:54:06;;;;;;;;;;;20.60;51.00;;;;;;4992161;28;19920;-74
2021/12/13 02:56:33;;;;;;;;;;;20.60;50.90;;;;;;4974471;28;20421;-74
2021/12/13 02:59:00;;;;;;;;;;;20.60;51.00;;;;;;4991969;28;19914;-74
2021/12/13 03:01:32;;;;;;;;;;;20.60;51.00;;;;;;4974642;28;19961;-74
2021/12/13 03:04:00;;;;;;;;;;;20.60;51.00;;;;;;4992334;28;19953;-74
2021/12/13 03:06:29;;;;;;;;;;;20.60;51.00;;;;;;4991665;28;19964;-75
2021/12/13 03:08:59;;;;;;;;;;;20.60;51.00;;;;;;4991982;28;19921;-74
2021/12/13 03:11:29;;;;;;;;;;;20.60;51.00;;;;;;4991959;28;19949;-75
2021/12/13 03:13:56;;;;;;;;;;;20.60;51.00;;;;;;4974728;28;20362;-74
2021/12/13 03:16:25;;;;;;;;;;;20.60;50.90;;;;;;4974057;28;20286;-74
2021/12/13 03:18:57;;;;;;;;;;;20.60;50.80;;;;;;4991836;28;19959;-74
2021/12/13 03:21:40;;;;;;;;;;;20.60;50.90;;;;;;4991920;28;19910;-74
2021/12/13 03:24:19;;;;;;;;;;;20.70;50.80;;;;;;4992253;28;19910;-74
2021/12/13 03:26:50;;;;;;;;;;;20.60;50.90;;;;;;4991787;28;19914;-74
2021/12/13 03:29:18;;;;;;;;;;;20.70;50.80;;;;;;4974169;28;20060;-74
2021/12/13 03:31:48;;;;;;;;;;;20.70;50.80;;;;;;4974513;28;19913;-74
2021/12/13 03:34:18;;;;;;;;;;;20.60;50.90;;;;;;4976510;28;19910;-74
2021/12/13 03:36:46;;;;;;;;;;;20.60;50.90;;;;;;4977822;28;20456;-75
2021/12/13 03:39:16;;;;;;;;;;;20.60;50.90;;;;;;4995183;28;19914;-74
2021/12/13 03:41:44;;;;;;;;;;;20.60;50.90;;;;;;4995188;28;19930;-74
2021/12/13 03:44:13;;;;;;;;;;;20.60;51.00;;;;;;4978014;28;19909;-74
2021/12/13 03:46:40;;;;;;;;;;;20.60;51.00;;;;;;4994800;28;19914;-75
2021/12/13 03:49:07;;;;;;;;;;;20.60;51.00;;;;;;4977369;28;19972;-74
2021/12/13 03:51:34;;;;;;;;;;;20.60;51.00;;;;;;4994957;28;20386;-75
2021/12/13 03:54:01;;;;;;;;;;;20.60;50.90;;;;;;4977569;28;20333;-74
2021/12/13 03:56:28;;;;;;;;;;;20.60;50.90;;;;;;4994576;28;19932;-74
2021/12/13 03:59:05;;;;;;;;;;;20.60;51.00;;;;;;4977714;28;19917;-75
2021/12/13 04:01:51;;;;;;;;;;;20.60;51.00;;;;;;4977515;28;19909;-74
2021/12/13 04:04:19;;;;;;;;;;;20.60;51.00;;;;;;4993811;28;19964;-75
2021/12/13 04:06:48;;;;;;;;;;;20.60;51.00;;;;;;4994660;28;20008;-74
2021/12/13 04:09:14;;;;;;;;;;;20.60;51.00;;;;;;4994809;28;20374;-74
2021/12/13 04:11:41;;;;;;;;;;;20.60;51.00;;;;;;4994627;28;19916;-74
2021/12/13 04:14:13;;;;;;;;;;;20.60;51.00;;;;;;4994538;28;19910;-74
2021/12/13 04:16:48;;;;;;;;;;;20.60;51.00;;;;;;4994402;28;20285;-74
2021/12/13 04:19:19;;;;;;;;;;;20.60;51.00;;;;;;4994595;28;19921;-74
2021/12/13 04:21:56;;;;;;;;;;;20.60;51.00;;;;;;4994515;28;19968;-75
2021/12/13 04:24:34;;;;;;;;;;;20.60;51.00;;;;;;4976841;28;20400;-74
2021/12/13 04:27:05;;;;;;;;;;;20.60;51.00;;;;;;4976955;28;19937;-75
2021/12/13 04:29:34;;;;;;;;;;;20.60;51.00;;;;;;4994413;28;19909;-75
2021/12/13 04:32:10;;;;;;;;;;;20.60;51.00;;;;;;4994246;28;20004;-75
2021/12/13 04:34:39;;;;;;;;;;;20.60;51.00;;;;;;4976654;28;20004;-75
2021/12/13 04:37:05;;;;;;;;;;;20.60;51.00;;;;;;4977204;28;19944;-75
2021/12/13 04:39:35;;;;;;;;;;;20.60;50.90;;;;;;4976811;28;19914;-74
2021/12/13 04:42:02;;;;;;;;;;;20.60;50.90;;;;;;4976788;28;19945;-74
2021/12/13 04:44:32;;;;;;;;;;;20.60;50.80;;;;;;4959436;28;19910;-74
2021/12/13 04:47:03;;;;;;;;;;;20.70;50.90;;;;;;4993784;28;19914;-74
2021/12/13 04:49:31;;;;;;;;;;;20.60;50.80;;;;;;4994589;28;19909;-74
2021/12/13 04:52:00;;;;;;;;;;;20.70;50.90;;;;;;4993888;28;19910;-74
2021/12/13 04:54:28;;;;;;;;;;;20.70;50.90;;;;;;4993357;28;19910;-74
2021/12/13 04:56:55;;;;;;;;;;;20.70;50.90;;;;;;4994010;28;19917;-74
2021/12/13 04:59:21;;;;;;;;;;;20.70;50.90;;;;;;4976374;28;19914;-75
2021/12/13 05:01:51;;;;;;;;;;;20.70;50.90;;;;;;4993711;28;20282;-74
2021/12/13 05:04:18;;;;;;;;;;;20.70;50.90;;;;;;4994015;28;19917;-74
2021/12/13 05:06:44;;;;;;;;;;;20.70;51.00;;;;;;4975831;28;19913;-74
2021/12/13 05:09:12;;;;;;;;;;;20.60;50.90;;;;;;4976216;28;19917;-74
2021/12/13 05:11:40;;;;;;;;;;;20.60;50.90;;;;;;4993596;28;19946;-74
2021/12/13 05:14:06;;;;;;;;;;;20.60;51.00;;;;;;4993489;28;19922;-74
2021/12/13 05:16:31;;;;;;;;;;;20.60;51.00;;;;;;4993934;28;20386;-75
2021/12/13 05:18:57;;;;;;;;;;;20.60;51.00;;;;;;4993296;28;19916;-74
2021/12/13 05:21:37;;;;;;;;;;;20.60;51.10;;;;;;4993294;28;19937;-74
2021/12/13 05:24:05;;;;;;;;;;;20.60;51.00;;;;;;4993376;28;19913;-74
2021/12/13 05:26:38;;;;;;;;;;;20.60;51.00;;;;;;4992918;28;19918;-75
2021/12/13 05:29:05;;;;;;;;;;;20.60;51.00;;;;;;4993516;28;19968;-74
2021/12/13 05:31:31;;;;;;;;;;;20.60;51.00;;;;;;4993488;28;19941;-74
2021/12/13 05:33:58;;;;;;;;;;;20.60;51.00;;;;;;4993179;28;19964;-74
2021/12/13 05:36:26;;;;;;;;;;;20.60;51.00;;;;;;4992816;28;19914;-75
2021/12/13 05:39:11;;;;;;;;;;;20.60;51.00;;;;;;4993134;28;20275;-75
2021/12/13 05:41:37;;;;;;;;;;;20.60;51.10;;;;;;4992700;28;20024;-75
2021/12/13 05:44:05;;;;;;;;;;;20.60;51.10;;;;;;4992919;28;20429;-75
2021/12/13 05:46:40;;;;;;;;;;;20.60;51.00;;;;;;4959214;28;19925;-75
2021/12/13 05:49:08;;;;;;;;;;;20.60;51.10;;;;;;4992771;28;19916;-74
2021/12/13 05:51:38;;;;;;;;;;;20.60;51.10;;;;;;4975999;28;19914;-75
2021/12/13 05:54:06;;;;;;;;;;;20.60;51.10;;;;;;4959729;28;19920;-75
2021/12/13 05:56:35;;;;;;;;;;;20.60;51.10;;;;;;4992123;28;20000;-75
2021/12/13 05:59:12;;;;;;;;;;;20.60;51.10;;;;;;4992565;28;20453;-75
2021/12/13 06:01:47;;;;;;;;;;;20.60;51.00;;;;;;4992781;28;20004;-75
2021/12/13 06:04:21;;;;;;;;;;;20.60;51.10;;;;;;4959207;28;19910;-75
2021/12/13 06:06:49;;;;;;;;;;;20.60;51.00;;;;;;4959319;28;20012;-75
2021/12/13 06:09:41;;;;;;;;;;;20.60;51.00;;;;;;4992626;28;19917;-75
2021/12/13 06:12:09;;;;;;;;;;;20.60;51.00;;;;;;4960222;28;19959;-75
2021/12/13 06:14:35;;;;;;;;;;;20.70;51.00;;;;;;4992189;28;19945;-74
2021/12/13 06:17:00;;;;;;;;;;;20.70;51.00;;;;;;4992382;28;19909;-74
2021/12/13 06:19:30;;;;;;;;;;;20.70;51.10;;;;;;4992361;28;19914;-75
2021/12/13 06:22:00;;;;;;;;;;;20.60;51.00;;;;;;4992559;28;19967;-75
2021/12/13 06:24:37;;;;;;;;;;;20.70;51.10;;;;;;4992057;28;20289;-74
2021/12/13 06:27:08;;;;;;;;;;;20.70;51.10;;;;;;4992492;28;20410;-74
2021/12/13 06:29:46;;;;;;;;;;;20.60;51.10;;;;;;4992371;28;19960;-74
2021/12/13 06:32:25;;;;;;;;;;;20.60;51.10;;;;;;4992217;28;19917;-74
2021/12/13 06:34:51;;;;;;;;;;;20.60;51.10;;;;;;4991969;28;19964;-74
2021/12/13 06:37:25;;;;;;;;;;;20.60;51.10;;;;;;4992273;28;19953;-74
2021/12/13 06:39:51;;;;;;;;;;;20.60;51.10;;;;;;4992101;28;20001;-74
2021/12/13 06:42:16;;;;;;;;;;;20.60;51.10;;;;;;4992026;28;19960;-74
2021/12/13 06:44:45;;;;;;;;;;;20.60;51.10;;;;;;4974188;28;19916;-74
2021/12/13 06:47:12;;;;;;;;;;;20.60;51.20;;;;;;4992252;28;19921;-74
2021/12/13 06:49:43;;;;;;;;;;;20.60;51.10;;;;;;4992308;28;20395;-74
2021/12/13 06:52:11;;;;;;;;;;;20.60;51.10;;;;;;4974739;28;19909;-74
2021/12/13 06:54:47;;;;;;;;;;;20.60;51.20;;;;;;4991609;28;19910;-74
2021/12/13 06:57:18;;;;;;;;;;;20.60;51.20;;;;;;4991967;28;19916;-74
2021/12/13 07:00:06;;;;;;;;;;;20.60;51.20;;;;;;4991976;28;20359;-74
2021/12/13 07:02:35;;;;;;;;;;;20.60;51.20;;;;;;4974621;28;19909;-74
2021/12/13 07:05:06;;;;;;;;;;;20.60;51.20;;;;;;4991732;28;19996;-74
2021/12/13 07:07:53;;;;;;;;;;;20.60;51.30;;;;;;4991653;28;19936;-75
2021/12/13 07:10:21;;;;;;;;;;;20.60;51.20;;;;;;4955667;28;19909;-75
2021/12/13 07:12:56;;;;;;;;;;;20.60;51.20;;;;;;4995663;28;20436;-75
2021/12/13 07:15:30;;;;;;;;;;;20.60;51.20;;;;;;4977740;28;20390;-75
2021/12/13 07:18:15;;;;;;;;;;;20.60;51.20;;;;;;4978559;28;19913;-74
2021/12/13 07:20:55;;;;;;;;;;;20.60;51.30;;;;;;4995500;28;19937;-74
2021/12/13 07:23:21;;;;;;;;;;;20.60;51.30;;;;;;4978090;28;20048;-74
2021/12/13 07:25:49;;;;;;;;;;;20.60;51.30;;;;;;4995126;28;19964;-74
2021/12/13 07:28:33;;;;;;;;;;;20.60;51.30;;;;;;4995428;28;20378;-74
2021/12/13 07:31:00;;;;;;;;;;;20.60;51.20;;;;;;4995454;28;19909;-74
2021/12/13 07:33:37;;;;;;;;;;;20.60;51.10;;;;;;4995582;28;20373;-74
2021/12/13 07:36:21;;;;;;;;;;;20.60;51.10;;;;;;4977768;28;19913;-74
2021/12/13 07:38:58;;;;;;;;;;;20.70;51.10;;;;;;4995235;28;19925;-74
2021/12/13 07:41:36;;;;;;;;;;;20.70;51.10;;;;;;4995380;28;19957;-74
2021/12/13 07:44:02;;;;;;;;;;;20.70;51.10;;;;;;4995459;28;19909;-74
2021/12/13 07:46:31;;;;;;;;;;;20.70;51.10;;;;;;4994781;28;19913;-74
2021/12/13 07:49:08;;;;;;;;;;;20.70;51.10;;;;;;4995096;28;20013;-74
2021/12/13 07:51:35;;;;;;;;;;;20.70;51.10;;;;;;4995216;28;19996;-74
2021/12/13 07:54:04;;;;;;;;;;;20.70;51.10;;;;;;4994984;28;20000;-74
2021/12/13 07:56:36;;;;;;;;;;;20.70;51.10;;;;;;4995049;28;19910;-74
2021/12/13 07:59:21;;;;;;;;;;;20.70;51.20;;;;;;4977758;28;19910;-74
2021/12/13 08:01:49;;;;;;;;;;;20.70;51.20;;;;;;4995042;28;19909;-74
2021/12/13 08:04:17;;;;;;;;;;;20.60;51.20;;;;;;4977270;28;20017;-74
2021/12/13 08:06:48;;;;;;;;;;;20.60;51.20;;;;;;4977321;28;19932;-74
2021/12/13 08:09:16;;;;;;;;;;;20.60;51.20;;;;;;4994948;28;19910;-75
2021/12/13 08:11:42;;;;;;;;;;;20.60;51.20;;;;;;4994912;28;19917;-75
2021/12/13 08:14:08;;;;;;;;;;;20.60;51.20;;;;;;4994793;28;19909;-75
2021/12/13 08:16:39;;;;;;;;;;;20.60;51.30;;;;;;4995248;28;19916;-74
2021/12/13 08:19:07;;;;;;;;;;;20.60;51.30;;;;;;4994938;28;19921;-74
2021/12/13 08:21:36;;;;;;;;;;;20.60;51.30;;;;;;4995147;28;19917;-74
2021/12/13 08:24:02;;;;;;;;;;;20.60;51.30;;;;;;4995713;28;19910;-73
2021/12/13 08:26:30;;;;;;;;;;;20.60;51.30;;;;;;5000397;28;19941;-73
2021/12/13 08:28:57;;;;;;;;;;;20.60;51.30;;;;;;4981444;28;19936;-75
2021/12/13 08:31:32;;;;;;;;;;;20.60;51.30;;;;;;4997112;28;19910;-74
2021/12/13 08:34:03;;;;;;;;;;;20.60;51.20;;;;;;4995072;28;19960;-74
2021/12/13 08:36:34;;;;;;;;;;;20.60;51.20;;;;;;4994991;28;20329;-74
2021/12/13 08:39:10;;;;;;;;;;;20.60;51.30;;;;;;4977623;28;19924;-74
2021/12/13 08:41:41;;;;;;;;;;;20.60;51.30;;;;;;4998483;28;19910;-74
2021/12/13 08:44:10;;;;;;;;;;;20.60;51.30;;;;;;4996131;28;20378;-75
2021/12/13 08:46:47;;;;;;;;;;;20.60;51.30;;;;;;4993656;28;20399;-74
2021/12/13 08:49:25;;;;;;;;;;;20.60;51.30;;;;;;4994010;28;19916;-75
2021/12/13 08:52:01;;;;;;;;;;;20.60;51.30;;;;;;4994162;28;20369;-75
2021/12/13 08:54:39;;;;;;;;;;;20.60;51.30;;;;;;4993665;28;19910;-74
2021/12/13 08:57:07;;;;;;;;;;;20.60;51.30;;;;;;4976639;28;19914;-75
2021/12/13 08:59:33;;;;;;;;;;;20.70;51.30;;;;;;4976353;28;19917;-74
2021/12/13 09:02:06;;;;;;;;;;;20.60;51.20;;;;;;4993714;28;19909;-75
2021/12/13 09:04:34;;;;;;;;;;;20.70;51.30;;;;;;4975798;28;19967;-75
2021/12/13 09:07:02;;;;;;;;;;;20.70;51.30;;;;;;4993723;28;19922;-75
2021/12/13 09:09:28;;;;;;;;;;;20.70;51.30;;;;;;4993752;28;19925;-75
2021/12/13 09:11:58;;;;;;;;;;;20.70;51.20;;;;;;4993640;28;19914;-75
2021/12/13 09:14:31;;;;;;;;;;;20.70;51.30;;;;;;4975956;28;20207;-75
2021/12/13 09:17:11;;;;;;;;;;;20.70;51.30;;;;;;4976430;28;19909;-75
2021/12/13 09:19:39;;;;;;;;;;;20.70;51.20;;;;;;4993492;28;19913;-75
2021/12/13 09:22:12;;;;;;;;;;;20.70;51.30;;;;;;4993325;28;19948;-74
2021/12/13 09:24:47;;;;;;;;;;;20.70;51.30;;;;;;4992946;28;19910;-75
2021/12/13 09:27:25;;;;;;;;;;;20.70;51.30;;;;;;4993316;28;20289;-75
2021/12/13 09:30:09;;;;;;;;;;;20.70;51.30;;;;;;4993221;28;19910;-75
2021/12/13 09:32:38;;;;;;;;;;;20.70;51.30;;;;;;4992582;28;19957;-75
2021/12/13 09:35:15;;;;;;;;;;;20.70;51.30;;;;;;4975415;28;19909;-74
2021/12/13 09:37:41;;;;;;;;;;;20.70;51.30;;;;;;4975834;28;19919;-75
2021/12/13 09:40:07;;;;;;;;;;;20.70;51.90;;;;;;4993037;28;20309;-74
2021/12/13 09:42:42;;;;;;;;;;;20.70;51.30;;;;;;4993176;28;19956;-74
2021/12/13 09:45:09;;;;;;;;;;;20.70;51.40;;;;;;4975090;28;19909;-74
2021/12/13 09:47:37;;;;;;;;;;;20.70;51.40;;;;;;4992876;28;19913;-75
2021/12/13 09:50:12;;;;;;;;;;;20.70;51.30;;;;;;4975293;28;19948;-75
2021/12/13 09:52:42;;;;;;;;;;;20.70;51.40;;;;;;4993052;28;19909;-75
2021/12/13 09:55:11;;;;;;;;;;;20.70;51.40;;;;;;4974992;28;19914;-75
2021/12/13 09:57:40;;;;;;;;;;;20.60;51.40;;;;;;4992519;28;19914;-75
2021/12/13 10:00:09;;;;;;;;;;;20.70;51.40;;;;;;4992612;28;19914;-75
2021/12/13 10:02:39;;;;;;;;;;;20.70;51.40;;;;;;4975698;28;20285;-75
2021/12/13 10:05:06;;;;;;;;;;;20.70;51.40;;;;;;4959002;28;20354;-75
2021/12/13 10:07:35;;;;;;;;;;;20.60;51.40;;;;;;4992752;28;19910;-75
2021/12/13 10:10:06;;;;;;;;;;;20.70;51.40;;;;;;4975183;28;19910;-75
2021/12/13 10:12:39;;;;;;;;;;;20.70;51.40;;;;;;4992595;28;20270;-75
2021/12/13 10:15:08;;;;;;;;;;;20.70;51.40;;;;;;4991806;28;19910;-74
2021/12/13 10:17:36;;;;;;;;;;;20.70;51.40;;;;;;4992715;28;19943;-75
2021/12/13 10:20:05;;;;;;;;;;;20.70;51.40;;;;;;4992488;28;19914;-75
2021/12/13 10:22:31;;;;;;;;;;;20.70;51.40;;;;;;4992459;28;20103;-75
2021/12/13 10:24:59;;;;;;;;;;;20.70;51.40;;;;;;4958781;28;19967;-75
2021/12/13 10:27:25;;;;;;;;;;;20.70;51.40;;;;;;4975239;28;19920;-75
2021/12/13 10:29:54;;;;;;;;;;;20.70;51.40;;;;;;4992404;28;19929;-75
2021/12/13 10:32:24;;;;;;;;;;;20.70;51.40;;;;;;4975086;28;19964;-75
2021/12/13 10:34:53;;;;;;;;;;;20.70;51.40;;;;;;4991949;28;19909;-75
2021/12/13 10:37:28;;;;;;;;;;;20.70;51.30;;;;;;4974905;28;19917;-75
2021/12/13 10:39:57;;;;;;;;;;;20.70;51.30;;;;;;4974576;28;20314;-75
2021/12/13 10:42:26;;;;;;;;;;;20.70;51.40;;;;;;4992270;28;19916;-75
2021/12/13 10:44:51;;;;;;;;;;;20.70;51.40;;;;;;4995370;28;20005;-74
2021/12/13 10:47:25;;;;;;;;;;;20.70;51.40;;;;;;4996474;28;20000;-75
2021/12/13 10:49:52;;;;;;;;;;;20.70;51.40;;;;;;4978811;28;19917;-74
2021/12/13 10:52:21;;;;;;;;;;;20.70;51.40;;;;;;4996321;28;19941;-75
2021/12/13 10:54:48;;;;;;;;;;;20.70;51.40;;;;;;4978313;28;19910;-75
2021/12/13 10:57:17;;;;;;;;;;;20.70;51.40;;;;;;4996146;28;20004;-75
2021/12/13 10:59:43;;;;;;;;;;;20.70;51.40;;;;;;4995854;28;19917;-75
2021/12/13 11:02:12;;;;;;;;;;;20.70;51.40;;;;;;4978552;28;19945;-75
2021/12/13 11:04:43;;;;;;;;;;;20.70;51.40;;;;;;4995851;28;19960;-75
2021/12/13 11:07:10;;;;;;;;;;;20.70;51.40;;;;;;4996216;28;19909;-74
2021/12/13 11:09:37;;;;;;;;;;;20.70;51.80;;;;;;4996254;28;19910;-74
2021/12/13 11:12:06;;;;;;;;;;;20.70;51.50;;;;;;4978055;28;19914;-75
2021/12/13 11:14:33;;;;;;;;;;;20.70;51.50;;;;;;4995532;28;19910;-75
2021/12/13 11:17:01;;;;;;;;;;;20.70;51.50;;;;;;4995781;28;20392;-75
2021/12/13 11:19:30;;;;;;;;;;;20.70;51.50;;;;;;4978283;28;19914;-75
2021/12/13 11:22:02;;;;;;;;;;;20.70;51.50;;;;;;4995509;28;19910;-75
2021/12/13 11:24:29;;;;;;;;;;;20.70;51.50;;;;;;4978004;28;19910;-75
2021/12/13 11:26:57;;;;;;;;;;;20.70;51.60;;;;;;4995724;28;20267;-75
2021/12/13 11:29:23;;;;;;;;;;;20.70;51.60;;;;;;4995561;28;20169;-74
2021/12/13 11:31:52;;;;;;;;;;;20.70;51.60;;;;;;4995499;28;20322;-74
2021/12/13 11:34:53;;;;;;;;;;;20.70;51.60;;;;;;4995037;28;19941;-74
2021/12/13 11:37:25;;;;;;;;;;;20.70;51.60;;;;;;4954408;29;19911;-74
2021/12/13 11:40:10;;;;;;;;;;;20.70;51.60;;;;;;4971333;28;19918;-75
2021/12/13 11:42:54;;;;;;;;;;;20.70;51.60;;;;;;4995257;28;19949;-75
2021/12/13 11:45:32;;;;;;;;;;;20.70;51.60;;;;;;4994805;28;20410;-75
2021/12/13 11:47:58;;;;;;;;;;;20.70;51.60;;;;;;4995409;28;19910;-74
2021/12/13 11:50:36;;;;;;;;;;;20.70;51.60;;;;;;4994999;28;19909;-74
2021/12/13 11:53:08;;;;;;;;;;;20.70;51.50;;;;;;4994961;28;19916;-75
2021/12/13 11:55:49;;;;;;;;;;;20.70;51.50;;;;;;4976967;28;20306;-74
2021/12/13 11:58:24;;;;;;;;;;;20.70;51.50;;;;;;4977795;28;20409;-75
2021/12/13 12:00:52;;;;;;;;;;;20.80;51.50;;;;;;4994866;28;19913;-75
2021/12/13 12:03:37;;;;;;;;;;;20.80;51.60;;;;;;4994731;28;19913;-75
2021/12/13 12:06:31;;;;;;;;;;;20.80;51.50;;;;;;4994494;28;19913;-74
2021/12/13 12:09:03;;;;;;;;;;;20.80;51.60;;;;;;4977510;28;19917;-75
2021/12/13 12:11:35;;;;;;;;;;;20.80;51.60;;;;;;4994674;28;19909;-75
2021/12/13 12:14:06;;;;;;;;;;;20.70;51.60;;;;;;4994849;28;19914;-75
2021/12/13 12:16:34;;;;;;;;;;;20.70;51.60;;;;;;4994312;28;19917;-74
2021/12/13 12:19:00;;;;;;;;;;;20.70;51.50;;;;;;4994464;28;19914;-74
2021/12/13 12:21:29;;;;;;;;;;;20.70;51.60;;;;;;4994555;28;19916;-75
2021/12/13 12:23:54;;;;;;;;;;;20.80;51.60;;;;;;4977354;28;20036;-74
2021/12/13 12:26:22;;;;;;;;;;;20.70;51.60;;;;;;4993981;28;20378;-75
2021/12/13 12:28:49;;;;;;;;;;;20.80;51.70;;;;;;4977153;28;19909;-74
2021/12/13 12:31:16;;;;;;;;;;;20.80;51.70;;;;;;4977133;28;19957;-75
2021/12/13 12:33:41;;;;;;;;;;;20.70;51.70;;;;;;4976972;28;19917;-74
2021/12/13 12:36:19;;;;;;;;;;;20.70;51.60;;;;;;4993920;28;19992;-75
2021/12/13 12:39:04;;;;;;;;;;;20.70;51.70;;;;;;4994255;28;19996;-74
2021/12/13 12:41:32;;;;;;;;;;;20.70;51.70;;;;;;4994263;28;19914;-75
2021/12/13 12:43:58;;;;;;;;;;;20.70;51.70;;;;;;4994282;28;19911;-75
2021/12/13 12:46:24;;;;;;;;;;;20.70;51.70;;;;;;4993696;28;19920;-74
2021/12/13 12:48:52;;;;;;;;;;;20.70;51.70;;;;;;4960564;28;19917;-75
2021/12/13 12:51:20;;;;;;;;;;;20.70;51.70;;;;;;4994035;28;19910;-74
2021/12/13 12:54:03;;;;;;;;;;;20.70;51.80;;;;;;4993987;28;19941;-74
2021/12/13 12:56:32;;;;;;;;;;;20.70;51.70;;;;;;4993588;28;19910;-75
2021/12/13 12:59:00;;;;;;;;;;;20.70;51.70;;;;;;4976627;28;19968;-74
2021/12/13 13:01:26;;;;;;;;;;;20.70;51.80;;;;;;4976349;28;19909;-74
2021/12/13 13:03:52;;;;;;;;;;;20.70;51.70;;;;;;4993768;28;19913;-75
2021/12/13 13:06:24;;;;;;;;;;;20.80;52.40;;;;;;4992636;28;20010;-75
2021/12/13 13:08:54;;;;;;;;;;;20.70;51.80;;;;;;4993998;28;19909;-74
2021/12/13 13:11:26;;;;;;;;;;;20.70;51.80;;;;;;4994029;28;19917;-74
2021/12/13 13:14:12;;;;;;;;;;;20.70;52.60;;;;;;4978288;28;19961;-74
2021/12/13 13:16:41;;;;;;;;;;;20.70;52.10;;;;;;5015317;23;19938;-85
2021/12/13 13:19:10;;;;;;;;;;;20.70;52.00;;;;;;4962743;28;20004;-88
2021/12/13 13:21:41;;;;;;;;;;;20.70;52.00;;;;;;4944811;28;19986;-87
2021/12/13 13:24:06;;;;;;;;;;;20.80;52.20;;;;;;4944742;28;20004;-85
2021/12/13 13:26:32;;;;;;;;;;;20.80;52.30;;;;;;4942061;28;20031;-85
2021/12/13 13:29:06;;;;;;;;;;;20.80;52.40;;;;;;4943326;28;19916;-85
2021/12/13 13:31:38;;;;;;;;;;;20.80;52.40;;;;;;4939468;29;20361;-82
2021/12/13 13:52:53;;;;;;;;;;;20.90;53.80;;;;;;5195558;23;19922;-87
2021/12/13 14:08:27;;;;;;;;;;;21.00;54.50;;;;;;4984104;28;19926;-93
2021/12/13 14:14:52;;;;;;;;;;;21.00;54.90;;;;;;5153460;23;19979;-85
2021/12/13 14:21:00;;;;;;;;;;;21.10;54.90;;;;;;4924612;28;19997;-87
2021/12/13 14:23:34;;;;;;;;;;;21.00;54.60;;;;;;4931027;28;19915;-91
2021/12/13 14:26:00;;;;;;;;;;;20.90;54.20;;;;;;4918303;28;19957;-87
2021/12/13 14:28:34;;;;;;;;;;;20.90;54.30;;;;;;4929570;28;19910;-87
2021/12/13 14:31:02;;;;;;;;;;;21.00;54.20;;;;;;4938861;28;19929;-86
2021/12/13 14:33:35;;;;;;;;;;;21.00;54.30;;;;;;4942149;28;20345;-86
2021/12/13 14:36:01;;;;;;;;;;;21.00;54.30;;;;;;4939747;28;19998;-88
2021/12/13 14:38:28;;;;;;;;;;;21.00;54.30;;;;;;4949700;28;20060;-88
2021/12/13 14:40:59;;;;;;;;;;;21.00;54.40;;;;;;4948273;28;19937;-87
2021/12/13 14:43:27;;;;;;;;;;;21.00;54.40;;;;;;4962702;28;19985;-87
2021/12/13 14:45:53;;;;;;;;;;;21.00;54.40;;;;;;4947529;28;19925;-87
2021/12/13 14:48:20;;;;;;;;;;;21.00;54.40;;;;;;4940434;28;19930;-88
2021/12/13 14:50:48;;;;;;;;;;;21.00;54.30;;;;;;4957355;28;19910;-88
2021/12/13 14:53:20;;;;;;;;;;;21.00;54.50;;;;;;4940846;28;19914;-87
2021/12/13 14:55:47;;;;;;;;;;;21.00;54.40;;;;;;4951770;29;19992;-87
2021/12/13 14:58:15;;;;;;;;;;;21.00;54.50;;;;;;4955272;28;19964;-86
2021/12/13 15:00:44;;;;;;;;;;;21.00;54.40;;;;;;4939715;28;19914;-89
2021/12/13 15:03:15;;;;;;;;;;;21.00;54.60;;;;;;4941078;28;19977;-91
2021/12/13 15:05:42;;;;;;;;;;;21.00;54.60;;;;;;4952381;28;20033;-90
2021/12/13 15:08:13;;;;;;;;;;;21.00;54.60;;;;;;4937856;28;19910;-89
2021/12/13 15:10:41;;;;;;;;;;;21.00;54.50;;;;;;4950392;28;19914;-90
2021/12/13 15:13:12;;;;;;;;;;;21.00;54.60;;;;;;4935393;28;20069;-89
2021/12/13 15:15:52;;;;;;;;;;;21.00;54.70;;;;;;4934881;28;19917;-88
2021/12/13 15:18:19;;;;;;;;;;;21.00;54.50;;;;;;4969925;28;19945;-89
2021/12/13 15:20:56;;;;;;;;;;;21.10;54.70;;;;;;4948457;28;19982;-87
2021/12/13 15:23:23;;;;;;;;;;;21.10;54.70;;;;;;4941306;28;19914;-88